Time;durP1;ratioP1;P1;durP2;ratioP2;P2;SDS_P1;SDS_P2;PMS_P1;PMS_P2;Temp;Humidity;BMP_temperature;BMP_pressure;BME280_temperature;BME280_humidity;BME280_pressure;Samples;Min_cycle;Max_cycle;Signal;HPM_P1;HPM_P2
2023/02/09 00:00:07;;;;;;;;;15.00;13.00;;;;;20.77;37.49;103037.53;5057133;28;45495;-73
2023/02/09 00:02:32;;;;;;;;;12.00;11.75;;;;;20.77;37.29;103039.31;5056642;28;46994;-72
2023/02/09 00:04:58;;;;;;;;;11.25;11.25;;;;;20.77;37.57;103039.31;5056854;28;45346;-73
2023/02/09 00:07:23;;;;;;;;;11.25;11.25;;;;;20.77;37.58;103041.97;5056939;28;45402;-73
2023/02/09 00:09:50;;;;;;;;;12.50;12.25;;;;;20.76;36.97;103037.66;5056898;28;45331;-73
2023/02/09 00:14:59;;;;;;;;;14.50;13.00;;;;;20.71;36.95;103030.06;5056691;28;45448;-72
2023/02/09 00:17:24;;;;;;;;;12.25;11.75;;;;;20.71;37.29;103032.72;5056863;28;45562;-72
2023/02/09 00:19:49;;;;;;;;;11.75;11.75;;;;;20.70;36.80;103025.75;5056585;28;45296;-72
2023/02/09 00:22:14;;;;;;;;;13.50;13.00;;;;;20.67;37.43;103024.16;5056464;28;47268;-72
2023/02/09 00:24:40;;;;;;;;;13.50;12.75;;;;;20.71;37.03;103032.72;5056838;28;45227;-73
2023/02/09 00:27:05;;;;;;;;;14.00;12.50;;;;;20.73;37.18;103039.59;5056693;28;45371;-73
2023/02/09 00:29:30;;;;;;;;;15.25;12.75;;;;;20.73;36.65;103034.28;5056508;28;45289;-72
2023/02/09 00:31:56;;;;;;;;;13.75;12.75;;;;;20.73;36.95;103041.38;5056356;28;46130;-72
2023/02/09 00:34:21;;;;;;;;;14.25;14.25;;;;;20.72;36.70;103037.88;5056207;28;45403;-72
2023/02/09 00:36:47;;;;;;;;;14.50;12.50;;;;;20.66;36.93;103029.59;5056698;28;45329;-72
2023/02/09 00:39:12;;;;;;;;;10.75;10.75;;;;;20.66;36.76;103029.59;5056413;28;45305;-72
2023/02/09 00:44:22;;;;;;;;;15.50;13.50;;;;;20.70;37.08;103036.31;5056404;28;45306;-71
2023/02/09 00:46:48;;;;;;;;;7.50;3.75;;;;;20.71;36.80;103043.31;5056438;28;45392;-72
2023/02/09 00:49:13;;;;;;;;;15.25;12.50;;;;;20.70;37.04;103031.88;5055982;28;45357;-72
2023/02/09 00:51:39;;;;;;;;;12.75;12.50;;;;;20.71;37.09;103043.31;5056040;28;47185;-72
2023/02/09 00:54:04;;;;;;;;;16.00;15.00;;;;;20.67;36.95;103047.97;5056058;28;45358;-72
2023/02/09 00:56:29;;;;;;;;;12.75;12.00;;;;;20.69;36.98;103042.56;5056418;28;45442;-72
2023/02/09 00:58:55;;;;;;;;;14.75;11.25;;;;;20.63;36.88;103033.31;5055957;28;45268;-72
2023/02/09 01:01:20;;;;;;;;;15.00;14.00;;;;;20.69;36.85;103034.63;5056003;28;46116;-72
2023/02/09 01:03:45;;;;;;;;;12.50;12.00;;;;;20.69;36.84;103035.47;5055630;28;45464;-72
2023/02/09 01:06:11;;;;;;;;;16.00;14.75;;;;;20.59;36.89;103015.97;5056330;28;45281;-72
2023/02/09 01:08:36;;;;;;;;;13.50;11.50;;;;;20.68;36.97;103031.16;5056101;28;45284;-73
2023/02/09 01:11:10;;;;;;;;;16.00;15.75;;;;;20.58;36.66;103030.19;5055863;28;47059;-73
2023/02/09 01:13:36;;;;;;;;;13.25;12.00;;;;;20.60;36.73;103025.59;5055843;28;45471;-72
2023/02/09 01:16:13;;;;;;;;;10.50;9.00;;;;;20.68;36.61;103023.22;5055919;28;45418;-72
2023/02/09 01:18:39;;;;;;;;;14.00;12.00;;;;;20.67;36.98;103029.47;5055786;28;45375;-72
2023/02/09 01:21:23;;;;;;;;;14.75;12.75;;;;;20.68;36.75;103022.38;5055582;28;47192;-72
2023/02/09 01:23:49;;;;;;;;;16.00;16.00;;;;;20.67;36.80;103026.81;5055704;28;45337;-72
2023/02/09 01:26:16;;;;;;;;;12.00;11.75;;;;;20.67;36.69;103029.47;5037731;28;45383;-72
2023/02/09 01:28:42;;;;;;;;;20.25;15.00;;;;;20.65;36.85;103025.25;5055864;28;45331;-72
2023/02/09 01:31:19;;;;;;;;;12.50;12.50;;;;;20.61;36.66;103011.41;5055446;28;47112;-72
2023/02/09 01:33:44;;;;;;;;;13.25;13.25;;;;;20.65;36.84;103017.31;5037445;28;45469;-72
2023/02/09 01:36:10;;;;;;;;;13.25;12.50;;;;;20.56;36.73;103010.91;5055741;28;45355;-72
2023/02/09 01:38:35;;;;;;;;;16.50;13.00;;;;;20.63;36.61;103028.03;5055776;28;45455;-72
2023/02/09 01:41:00;;;;;;;;;17.00;12.75;;;;;20.51;36.88;103004.19;5057467;28;46265;-72
2023/02/09 01:43:26;;;;;;;;;15.25;14.25;;;;;20.65;36.59;103028.75;5059173;28;45377;-72
2023/02/09 01:45:55;;;;;;;;;14.00;12.25;;;;;20.58;36.43;103014.31;5059448;28;45287;-72
2023/02/09 01:48:27;;;;;;;;;11.00;11.00;;;;;20.59;36.62;103014.19;5058898;28;45391;-72
2023/02/09 01:50:56;;;;;;;;;17.50;15.25;;;;;20.66;36.58;103016.38;5058849;28;45486;-72
2023/02/09 01:53:21;;;;;;;;;13.00;13.00;;;;;20.66;36.70;103019.00;5058858;28;45307;-72
2023/02/09 01:55:55;;;;;;;;;13.25;13.25;;;;;20.67;36.80;103021.53;5059011;28;45388;-72
2023/02/09 01:58:24;;;;;;;;;13.25;12.25;;;;;20.59;36.81;103008.88;5058913;28;45268;-73
2023/02/09 02:00:49;;;;;;;;;13.25;12.25;;;;;20.66;36.62;103008.44;5058755;28;46155;-72
2023/02/09 02:03:19;;;;;;;;;16.75;13.25;;;;;20.67;36.39;103004.81;5058306;28;45348;-72
2023/02/09 02:05:48;;;;;;;;;16.00;13.75;;;;;20.66;36.50;103000.50;5059106;28;45357;-72
2023/02/09 02:08:16;;;;;;;;;16.50;14.50;;;;;20.65;36.71;102997.00;5058774;28;45322;-72
2023/02/09 02:10:41;;;;;;;;;13.75;12.75;;;;;20.63;36.61;103004.22;5058712;28;45439;-72
2023/02/09 02:13:07;;;;;;;;;17.50;12.75;;;;;20.66;36.71;103005.78;5058646;28;45335;-72
2023/02/09 02:15:54;;;;;;;;;13.00;13.00;;;;;20.65;36.51;103006.72;5058876;28;45358;-72
2023/02/09 02:18:27;;;;;;;;;14.75;13.25;;;;;20.59;36.42;102995.66;5058822;28;45400;-72
2023/02/09 02:21:03;;;;;;;;;13.25;12.25;;;;;20.50;36.69;102994.59;5058423;28;46897;-72
2023/02/09 02:23:43;;;;;;;;;6.50;6.50;;;;;20.53;36.86;102980.28;5058548;28;45229;-72
2023/02/09 02:26:36;;;;;;;;;13.25;13.25;;;;;20.61;36.61;102988.44;5058700;28;45387;-72
2023/02/09 02:29:01;;;;;;;;;14.50;12.75;;;;;20.62;36.56;103002.53;5058475;28;45627;-72
2023/02/09 02:31:49;;;;;;;;;12.75;12.75;;;;;20.62;36.75;103008.66;5058063;28;45417;-72
2023/02/09 02:34:24;;;;;;;;;9.75;9.50;;;;;20.61;36.42;103004.31;5058417;28;45356;-72
2023/02/09 02:37:04;;;;;;;;;17.00;12.75;;;;;20.60;36.69;103007.94;5040295;28;45410;-72
2023/02/09 02:39:44;;;;;;;;;15.00;13.25;;;;;20.60;36.62;102996.50;5058489;28;45332;-72
2023/02/09 02:42:50;;;;;;;;;12.00;12.00;;;;;20.60;36.43;102989.44;5058148;28;47334;-72
2023/02/09 02:45:28;;;;;;;;;11.25;10.75;;;;;20.59;36.51;102984.22;5057888;28;45375;-72
2023/02/09 02:48:17;;;;;;;;;14.00;13.00;;;;;20.59;36.35;102985.09;5058215;28;45402;-72
2023/02/09 02:50:54;;;;;;;;;14.25;12.50;;;;;20.59;36.46;102992.16;5058143;28;45356;-72
2023/02/09 02:53:25;;;;;;;;;13.50;13.00;;;;;20.59;36.47;102979.78;5057843;28;45428;-72
2023/02/09 02:55:52;;;;;;;;;15.75;13.25;;;;;20.59;36.55;102981.59;5058311;28;45351;-72
2023/02/09 02:58:21;;;;;;;;;12.50;12.00;;;;;20.46;36.54;102963.19;5057975;28;45318;-72
2023/02/09 03:00:51;;;;;;;;;13.75;13.00;;;;;20.59;36.22;102974.50;5057736;28;45373;-72
2023/02/09 03:03:24;;;;;;;;;9.25;7.25;;;;;20.58;36.32;102978.09;5057720;28;45430;-71
2023/02/09 03:05:50;;;;;;;;;16.00;13.00;;;;;20.48;36.41;102964.75;5057925;28;45412;-72
2023/02/09 03:08:15;;;;;;;;;14.25;12.75;;;;;20.58;36.50;102986.03;5057882;28;45335;-72
2023/02/09 03:10:41;;;;;;;;;15.00;12.75;;;;;20.59;36.16;102987.72;5058117;28;45290;-72
2023/02/09 03:13:11;;;;;;;;;18.00;14.00;;;;;20.60;36.29;102975.34;5057883;28;47203;-72
2023/02/09 03:16:06;;;;;;;;;17.75;13.00;;;;;20.56;36.40;102979.16;5057289;28;45309;-72
2023/02/09 03:18:36;;;;;;;;;16.50;13.50;;;;;20.61;35.95;102984.94;5057940;28;45332;-72
2023/02/09 03:21:20;;;;;;;;;13.75;12.50;;;;;20.61;36.36;102991.09;5057685;28;45524;-72
2023/02/09 03:23:45;;;;;;;;;14.00;12.75;;;;;20.61;36.46;102988.44;5057447;28;45315;-72
2023/02/09 03:26:21;;;;;;;;;13.50;13.50;;;;;20.61;35.99;102980.50;5057575;28;45253;-72
2023/02/09 03:28:50;;;;;;;;;15.00;15.00;;;;;20.62;36.21;102984.00;5057345;28;45378;-72
2023/02/09 03:31:16;;;;;;;;;14.75;14.00;;;;;20.62;36.31;102970.78;5057610;28;45355;-72
2023/02/09 03:33:41;;;;;;;;;16.00;13.00;;;;;20.61;36.09;102982.31;5057339;28;45414;-72
2023/02/09 03:36:17;;;;;;;;;11.25;11.25;;;;;20.62;36.22;102976.06;5057317;28;45408;-72
2023/02/09 03:38:42;;;;;;;;;13.50;13.50;;;;;20.60;36.22;102968.25;5057654;28;45419;-72
2023/02/09 03:41:08;;;;;;;;;14.25;14.25;;;;;20.63;36.01;102964.53;5057217;28;45559;-73
2023/02/09 03:46:17;;;;;;;;;15.50;13.75;;;;;20.62;36.18;102961.03;5057354;28;45396;-72
2023/02/09 03:48:42;;;;;;;;;14.50;13.25;;;;;20.63;36.15;102959.25;5057207;28;45491;-72
2023/02/09 03:51:07;;;;;;;;;16.75;15.50;;;;;20.62;36.22;102958.41;5057151;28;45342;-72
2023/02/09 03:53:36;;;;;;;;;17.75;15.50;;;;;20.53;36.21;102950.34;5056945;28;45367;-72
2023/02/09 03:56:03;;;;;;;;;15.75;14.50;;;;;20.61;35.94;102956.72;5057111;28;45375;-72
2023/02/09 03:58:28;;;;;;;;;14.75;12.75;;;;;20.62;35.82;102958.41;5056686;28;45371;-72
2023/02/09 04:00:54;;;;;;;;;14.75;13.25;;;;;20.62;35.92;102954.91;5057077;28;45392;-72
2023/02/09 04:03:19;;;;;;;;;14.75;11.25;;;;;20.61;35.82;102954.06;5056346;28;46014;-72
2023/02/09 04:05:44;;;;;;;;;14.00;13.50;;;;;20.61;35.93;102953.22;5056959;28;45327;-72
2023/02/09 04:08:09;;;;;;;;;13.00;12.00;;;;;20.60;35.93;102962.97;5057165;28;45376;-72
2023/02/09 04:10:35;;;;;;;;;16.75;13.75;;;;;20.60;36.02;102968.25;5057102;28;45335;-72
2023/02/09 04:13:00;;;;;;;;;15.00;14.00;;;;;20.54;36.14;102963.44;5056552;28;45511;-71
2023/02/09 04:15:26;;;;;;;;;11.50;11.50;;;;;20.59;36.25;102971.00;5057002;28;45443;-72
2023/02/09 04:17:51;;;;;;;;;13.00;13.00;;;;;20.58;35.98;102961.41;5056845;28;45376;-72
2023/02/09 04:20:17;;;;;;;;;14.75;13.00;;;;;20.57;35.88;102959.72;5056798;28;45355;-72
2023/02/09 04:22:42;;;;;;;;;9.50;9.50;;;;;20.57;36.07;102957.06;5056560;28;46828;-72
2023/02/09 04:25:07;;;;;;;;;17.50;16.25;;;;;20.58;36.00;102953.47;5056621;28;45365;-72
2023/02/09 04:27:33;;;;;;;;;10.75;10.75;;;;;20.58;36.00;102962.22;5056557;28;45353;-72
2023/02/09 04:29:58;;;;;;;;;15.25;13.00;;;;;20.58;35.92;102969.34;5056510;28;45400;-72
2023/02/09 04:32:23;;;;;;;;;12.00;12.00;;;;;20.58;36.24;102978.09;5056659;28;47060;-72
2023/02/09 04:34:49;;;;;;;;;13.75;12.25;;;;;20.58;36.34;102975.44;5056623;28;45287;-72
2023/02/09 04:37:14;;;;;;;;;13.00;11.75;;;;;20.59;35.93;102976.31;5056696;28;45470;-72
2023/02/09 04:39:39;;;;;;;;;11.25;11.25;;;;;20.58;36.36;102993.97;5056470;28;45363;-72
2023/02/09 04:42:05;;;;;;;;;14.00;13.50;;;;;20.58;36.12;102995.78;5055899;28;46174;-72
2023/02/09 04:44:30;;;;;;;;;17.50;14.50;;;;;20.54;35.84;102987.25;5056363;28;46148;-72
2023/02/09 04:46:55;;;;;;;;;12.00;11.25;;;;;20.57;36.36;102994.94;5056451;28;45332;-72
2023/02/09 04:49:20;;;;;;;;;12.00;12.00;;;;;20.57;36.21;102994.09;5056256;28;45364;-72
2023/02/09 04:51:46;;;;;;;;;14.50;13.50;;;;;20.54;35.94;102987.25;5055795;28;46820;-72
2023/02/09 04:54:11;;;;;;;;;11.25;11.00;;;;;20.56;36.25;102987.09;5056235;28;45332;-72
2023/02/09 04:56:37;;;;;;;;;14.00;13.75;;;;;20.56;36.27;102995.03;5056206;28;45313;-72
2023/02/09 05:01:46;;;;;;;;;11.00;11.00;;;;;20.51;36.21;102983.03;5055882;28;45291;-72
2023/02/09 05:04:11;;;;;;;;;12.75;12.50;;;;;20.50;36.19;102996.38;5037798;28;45325;-72
2023/02/09 05:06:36;;;;;;;;;14.25;11.75;;;;;20.45;36.11;102983.50;5056142;28;45268;-72
2023/02/09 05:09:02;;;;;;;;;13.50;13.00;;;;;20.56;35.87;102984.47;5056137;28;45341;-72
2023/02/09 05:11:27;;;;;;;;;14.75;11.00;;;;;20.56;35.96;102995.03;5055593;28;45859;-73
2023/02/09 05:13:54;;;;;;;;;13.75;12.75;;;;;20.45;36.35;102990.59;5037761;28;45331;-72
2023/02/09 05:16:19;;;;;;;;;14.00;11.00;;;;;20.57;36.15;103007.31;5055088;28;45388;-72
2023/02/09 05:18:44;;;;;;;;;11.75;11.75;;;;;20.57;36.07;103002.03;5056003;28;45436;-72
2023/02/09 05:21:10;;;;;;;;;13.25;13.25;;;;;20.57;35.85;103010.81;5055720;28;47142;-72
2023/02/09 05:23:36;;;;;;;;;12.25;11.75;;;;;20.56;35.77;103018.84;5055800;28;45389;-72
2023/02/09 05:26:01;;;;;;;;;16.50;13.50;;;;;20.57;35.97;103024.03;5055564;28;45427;-71
2023/02/09 05:28:26;;;;;;;;;15.00;13.00;;;;;20.56;35.80;103013.56;5055891;28;45294;-71
2023/02/09 05:30:52;;;;;;;;;12.00;11.25;;;;;20.56;35.83;103029.44;5055606;28;46961;-73
2023/02/09 05:33:22;;;;;;;;;6.50;4.50;;;;;20.57;35.92;103039.91;5055787;28;45411;-72
2023/02/09 05:35:49;;;;;;;;;11.50;11.00;;;;;20.56;36.16;103030.28;5055825;28;45439;-72
2023/02/09 05:38:15;;;;;;;;;8.25;6.50;;;;;20.57;35.94;103017.91;5037680;28;45407;-72
2023/02/09 05:40:40;;;;;;;;;14.75;13.50;;;;;20.53;35.72;103009.38;5055034;28;45892;-72
2023/02/09 05:43:05;;;;;;;;;17.25;14.25;;;;;20.53;35.98;103009.38;5055469;28;45352;-72
2023/02/09 05:45:31;;;;;;;;;15.25;12.00;;;;;20.49;36.04;103000.81;5055749;28;45316;-72
2023/02/09 05:47:56;;;;;;;;;17.75;14.25;;;;;20.41;35.99;102984.69;5055479;28;45414;-72
2023/02/09 05:50:21;;;;;;;;;10.75;10.75;;;;;20.55;36.10;103019.81;5055368;28;45930;-72
2023/02/09 05:52:47;;;;;;;;;7.00;6.00;;;;;20.54;36.13;103016.34;5055253;28;45387;-72
2023/02/09 05:55:12;;;;;;;;;14.50;13.75;;;;;20.54;35.87;103005.75;5055174;28;45291;-72
2023/02/09 05:57:37;;;;;;;;;12.50;10.75;;;;;20.54;35.96;103018.97;5055373;28;45312;-72
2023/02/09 06:00:04;;;;;;;;;14.25;12.00;;;;;20.53;36.27;103030.53;5055140;28;46081;-72
2023/02/09 06:02:30;;;;;;;;;11.50;11.00;;;;;20.51;36.06;103019.19;5055216;28;45292;-72
2023/02/09 06:04:55;;;;;;;;;14.00;11.50;;;;;20.47;35.86;103025.69;5055409;28;45337;-71
2023/02/09 06:07:20;;;;;;;;;12.00;12.00;;;;;20.49;36.39;103048.41;5055662;28;45457;-73
2023/02/09 06:09:46;;;;;;;;;9.75;7.50;;;;;20.53;36.13;103048.19;5036777;28;48041;-71
2023/02/09 06:12:11;;;;;;;;;14.75;12.75;;;;;20.39;35.78;103023.63;5055095;28;45350;-72
2023/02/09 06:14:36;;;;;;;;;14.00;11.25;;;;;20.53;36.13;103038.47;5055454;28;45451;-73
2023/02/09 06:17:02;;;;;;;;;17.75;14.25;;;;;20.52;36.19;103042.06;5055280;28;45676;-72
2023/02/09 06:19:27;;;;;;;;;15.25;12.00;;;;;20.54;36.04;103045.41;5055066;28;45364;-72
2023/02/09 06:21:53;;;;;;;;;15.00;13.25;;;;;20.54;35.90;103045.41;5055265;28;45371;-72
2023/02/09 06:24:18;;;;;;;;;15.00;13.00;;;;;20.46;36.10;103035.44;5054768;28;45800;-73
2023/02/09 06:26:43;;;;;;;;;13.00;13.00;;;;;20.54;35.89;103052.50;5056722;28;45415;-72
2023/02/09 06:29:09;;;;;;;;;16.00;11.50;;;;;20.54;36.03;103044.56;5058443;28;47178;-72
2023/02/09 06:31:35;;;;;;;;;14.00;12.50;;;;;20.04;35.94;102975.91;5058489;28;45395;-72
2023/02/09 06:34:00;;;;;;;;;16.25;14.00;;;;;20.48;35.84;103054.66;5058669;28;45388;-72
2023/02/09 06:36:26;;;;;;;;;11.25;11.00;;;;;20.55;35.99;103075.34;5058402;28;45520;-72
2023/02/09 06:38:51;;;;;;;;;12.00;11.00;;;;;20.55;36.03;103076.22;5057933;28;46265;-72
2023/02/09 06:41:16;;;;;;;;;13.00;11.75;;;;;20.56;35.85;103080.53;5058262;28;45432;-72
2023/02/09 06:43:42;;;;;;;;;14.00;12.25;;;;;20.56;35.95;103077.88;5058328;28;45478;-72
2023/02/09 06:46:10;;;;;;;;;13.75;13.50;;;;;20.59;35.92;103076.81;5058294;28;45434;-72
2023/02/09 06:48:36;;;;;;;;;14.25;11.75;;;;;20.57;36.03;103090.16;5058096;28;47047;-72
2023/02/09 06:51:06;;;;;;;;;15.00;12.00;;;;;20.59;36.03;103084.75;5058016;28;45353;-72
2023/02/09 06:53:31;;;;;;;;;11.75;11.75;;;;;20.63;35.74;103094.16;5057892;28;45387;-71
2023/02/09 06:56:02;;;;;;;;;13.00;12.00;;;;;20.62;36.10;103095.94;5039961;28;45519;-70
2023/02/09 06:58:28;;;;;;;;;14.50;12.00;;;;;20.63;35.73;103096.78;5057806;28;45467;-70
2023/02/09 07:00:53;;;;;;;;;14.25;12.75;;;;;20.54;35.92;103081.59;5057932;28;45957;-73
2023/02/09 07:03:18;;;;;;;;;15.00;14.50;;;;;20.57;35.93;103097.25;5058122;28;45537;-73
2023/02/09 07:05:44;;;;;;;;;11.25;10.75;;;;;20.59;35.63;103108.53;5039729;28;45478;-73
2023/02/09 07:08:09;;;;;;;;;14.25;13.00;;;;;20.63;36.08;103110.84;5057672;28;46611;-74
2023/02/09 07:10:34;;;;;;;;;10.50;10.50;;;;;20.63;35.98;103110.84;5057874;28;45820;-74
2023/02/09 07:13:00;;;;;;;;;11.50;11.50;;;;;20.64;35.97;103122.25;5058080;28;45403;-74
2023/02/09 07:15:25;;;;;;;;;14.25;12.00;;;;;20.32;36.23;103076.13;5057850;28;45403;-76
2023/02/09 07:17:50;;;;;;;;;19.00;12.75;;;;;20.65;36.09;103128.41;5057782;28;46294;-73
2023/02/09 07:20:16;;;;;;;;;11.00;10.50;;;;;20.63;36.10;103132.00;5057073;28;45340;-72
2023/02/09 07:22:41;;;;;;;;;11.00;10.50;;;;;20.63;36.22;103131.19;5057049;28;45383;-72
2023/02/09 07:25:07;;;;;;;;;14.00;14.00;;;;;20.63;36.40;103136.47;5057016;28;45466;-72
2023/02/09 07:27:32;;;;;;;;;10.75;10.75;;;;;20.63;36.92;103131.19;5057330;28;46341;-72
2023/02/09 07:29:57;;;;;;;;;12.50;12.50;;;;;20.63;36.91;103132.00;5057452;28;45356;-72
2023/02/09 07:32:23;;;;;;;;;13.75;12.50;;;;;20.58;36.79;103131.50;5057574;28;45333;-72
2023/02/09 07:34:48;;;;;;;;;12.50;12.50;;;;;20.65;37.15;103137.19;5057266;28;45391;-72
2023/02/09 07:37:14;;;;;;;;;16.00;13.00;;;;;20.60;37.40;103121.66;5057116;28;45418;-75
2023/02/09 07:39:39;;;;;;;;;15.00;12.25;;;;;20.67;36.99;103131.78;5056571;28;45379;-74
2023/02/09 07:42:04;;;;;;;;;11.75;11.00;;;;;20.69;37.14;103145.72;5057171;28;45426;-72
2023/02/09 07:44:30;;;;;;;;;10.00;10.00;;;;;20.70;37.43;103153.56;5044061;28;45327;-72
2023/02/09 07:46:55;;;;;;;;;11.00;9.25;;;;;20.72;37.51;103156.09;5049036;28;46930;-72
2023/02/09 07:49:20;;;;;;;;;3.75;2.00;;;;;20.77;37.48;103151.28;5041556;28;45671;-72
2023/02/09 07:51:46;;;;;;;;;11.50;10.25;;;;;20.79;37.13;103165.25;5052757;28;45554;-72
2023/02/09 07:54:13;;;;;;;;;13.25;12.75;;;;;20.79;37.55;103152.00;5052868;28;45487;-73
2023/02/09 07:56:39;;;;;;;;;13.25;12.00;;;;;20.81;37.31;103154.56;5053648;28;45530;-72
2023/02/09 07:59:05;;;;;;;;;14.50;12.50;;;;;20.91;36.92;103162.63;5052560;28;45380;-72
2023/02/09 08:01:31;;;;;;;;;12.50;10.75;;;;;20.96;37.24;103171.06;5048917;28;45862;-72
2023/02/09 08:03:57;;;;;;;;;12.75;11.75;;;;;20.90;37.03;103156.50;5052744;28;46428;-72
2023/02/09 08:06:44;;;;;;;;;13.75;10.50;;;;;20.98;36.92;103160.38;5052305;28;45381;-72
2023/02/09 08:09:11;;;;;;;;;12.00;12.00;;;;;21.00;37.14;103169.06;5052235;28;45303;-72
2023/02/09 08:11:50;;;;;;;;;12.00;11.00;;;;;20.90;37.33;103137.97;5051244;28;45313;-72
2023/02/09 08:14:18;;;;;;;;;13.25;12.00;;;;;21.03;36.87;103159.09;5052202;28;45497;-72
2023/02/09 08:16:46;;;;;;;;;15.00;12.00;;;;;21.00;37.03;103154.00;5052208;28;45442;-72
2023/02/09 08:19:16;;;;;;;;;13.00;13.00;;;;;21.09;36.70;103159.59;5051616;28;45416;-72
2023/02/09 08:21:44;;;;;;;;;16.50;13.75;;;;;21.16;36.76;103150.19;5052086;28;45507;-72
2023/02/09 08:24:11;;;;;;;;;10.25;10.25;;;;;21.17;36.95;103149.25;5052487;28;45455;-72
2023/02/09 08:26:37;;;;;;;;;16.75;13.25;;;;;21.26;36.88;103164.41;5052503;28;45296;-72
2023/02/09 08:29:02;;;;;;;;;9.50;9.50;;;;;21.33;36.58;103179.84;5052118;28;45653;-72
2023/02/09 08:31:28;;;;;;;;;15.50;13.00;;;;;21.39;36.90;103176.75;5052991;28;45539;-73
2023/02/09 08:33:53;;;;;;;;;13.25;11.00;;;;;21.28;36.74;103148.44;5052856;28;45719;-72
2023/02/09 08:36:20;;;;;;;;;10.50;10.50;;;;;21.49;36.23;103169.72;5052196;28;45457;-72
2023/02/09 08:38:46;;;;;;;;;12.25;12.00;;;;;21.52;36.21;103180.09;5052035;28;45335;-72
2023/02/09 08:41:14;;;;;;;;;12.75;12.75;;;;;21.54;36.16;103177.34;5052375;28;45451;-72
2023/02/09 08:43:39;;;;;;;;;12.50;11.75;;;;;21.57;36.31;103179.72;5051947;28;45571;-72
2023/02/09 08:46:10;;;;;;;;;12.50;10.75;;;;;21.48;36.04;103161.91;5052080;28;46239;-72
2023/02/09 08:48:38;;;;;;;;;12.25;11.50;;;;;21.59;36.14;103180.47;5050441;28;45432;-73
2023/02/09 08:51:06;;;;;;;;;13.75;12.00;;;;;21.61;36.56;103177.69;5052153;28;45407;-72
2023/02/09 08:53:32;;;;;;;;;11.25;11.00;;;;;21.62;36.07;103174.09;5051625;28;45475;-72
2023/02/09 08:55:57;;;;;;;;;12.75;11.50;;;;;21.63;36.01;103181.06;5052233;28;46165;-72
2023/02/09 08:58:24;;;;;;;;;11.50;11.50;;;;;21.63;36.15;103187.22;5050660;28;45556;-72
2023/02/09 09:00:50;;;;;;;;;14.50;14.00;;;;;21.62;36.47;103185.50;5052002;28;45611;-72
2023/02/09 09:03:15;;;;;;;;;12.75;11.00;;;;;21.62;36.41;103185.50;5036804;28;45314;-72
2023/02/09 09:05:40;;;;;;;;;12.75;10.75;;;;;21.61;36.45;103180.34;5026611;28;46505;-72
2023/02/09 09:08:06;;;;;;;;;11.75;11.00;;;;;21.53;36.25;103170.34;5031913;28;45472;-72
2023/02/09 09:10:31;;;;;;;;;11.25;10.75;;;;;21.60;36.00;103178.66;5048501;28;45531;-72
2023/02/09 09:12:57;;;;;;;;;11.75;11.00;;;;;21.59;36.32;103185.78;5051481;28;45561;-72
2023/02/09 09:15:23;;;;;;;;;14.00;12.00;;;;;21.59;36.08;103184.94;5052572;28;46096;-73
2023/02/09 09:17:48;;;;;;;;;14.00;12.00;;;;;21.58;36.69;103194.66;5051089;28;45765;-72
2023/02/09 09:20:14;;;;;;;;;12.25;11.00;;;;;21.59;36.47;103206.13;5051910;28;45263;-73
2023/02/09 09:22:39;;;;;;;;;13.25;11.00;;;;;21.58;36.35;103191.19;5051756;28;45505;-72
2023/02/09 09:25:05;;;;;;;;;12.75;12.25;;;;;21.58;36.65;103193.81;5048789;28;46251;-72
2023/02/09 09:27:34;;;;;;;;;12.75;11.50;;;;;21.56;36.52;103187.81;5051878;28;45555;-72
2023/02/09 09:30:01;;;;;;;;;13.00;10.25;;;;;21.58;36.26;103185.88;5051796;28;45295;-72
2023/02/09 09:32:26;;;;;;;;;11.75;11.75;;;;;21.47;36.21;103176.97;5044150;28;45554;-72
2023/02/09 09:34:57;;;;;;;;;13.50;12.50;;;;;21.57;36.56;103194.81;5047412;28;46649;-72
2023/02/09 09:37:23;;;;;;;;;13.50;12.50;;;;;21.57;36.56;103194.81;5052078;28;45392;-72
2023/02/09 09:39:49;;;;;;;;;14.75;13.00;;;;;21.52;36.00;103185.38;5051399;28;45503;-72
2023/02/09 09:42:28;;;;;;;;;17.25;13.25;;;;;21.56;36.07;103201.91;5051531;28;45438;-72
2023/02/09 09:44:54;;;;;;;;;13.50;12.00;;;;;21.49;36.39;103184.81;5051403;28;47416;-72
2023/02/09 09:47:33;;;;;;;;;34.25;29.00;;;;;21.42;33.48;103191.53;5050659;28;45344;-72
2023/02/09 09:49:59;;;;;;;;;20.75;18.25;;;;;21.34;34.25;103190.31;5048373;28;45489;-74
2023/02/09 09:52:39;;;;;;;;;16.00;15.00;;;;;21.39;35.33;103196.09;5051567;28;45398;-73
2023/02/09 09:55:07;;;;;;;;;23.00;18.50;;;;;21.40;35.45;103202.25;5051290;28;46353;-73
2023/02/09 09:57:37;;;;;;;;;15.00;14.50;;;;;21.43;35.57;103215.25;5050389;28;45269;-73
2023/02/09 10:00:09;;;;;;;;;16.25;16.00;;;;;21.44;35.30;103208.16;5050765;28;45368;-73
2023/02/09 10:02:35;;;;;;;;;17.50;14.25;;;;;21.45;35.70;103220.41;5053496;28;45606;-73
2023/02/09 10:05:37;;;;;;;;;14.00;13.25;;;;;21.44;35.88;103214.31;5054190;28;45861;-74
2023/02/09 10:08:21;;;;;;;;;15.00;13.50;;;;;21.44;35.50;103224.03;5031842;28;45558;-74
2023/02/09 10:10:53;;;;;;;;;14.25;13.75;;;;;21.46;35.83;103230.06;5028604;28;45455;-73
2023/02/09 10:13:34;;;;;;;;;15.25;13.75;;;;;21.46;35.45;103228.25;5012326;28;46461;-73
2023/02/09 10:16:00;;;;;;;;;17.75;15.25;;;;;21.46;35.60;103230.91;5020303;28;46539;-73
2023/02/09 10:18:28;;;;;;;;;18.00;14.50;;;;;21.43;35.62;103228.50;5011575;28;45434;-74
2023/02/09 10:20:55;;;;;;;;;14.00;12.75;;;;;21.45;35.63;103237.16;5012090;28;45504;-73
2023/02/09 10:23:25;;;;;;;;;12.25;12.00;;;;;21.46;35.53;103240.66;5011889;28;45535;-73
2023/02/09 10:25:58;;;;;;;;;13.50;13.50;;;;;21.46;35.62;103238.84;5011757;28;45425;-73
2023/02/09 10:28:27;;;;;;;;;18.25;16.00;;;;;21.46;36.13;103238.00;5012444;28;45560;-73
2023/02/09 10:30:54;;;;;;;;;15.00;13.00;;;;;21.46;35.46;103235.34;5023275;28;45866;-73
2023/02/09 10:33:20;;;;;;;;;13.25;12.75;;;;;21.46;36.10;103238.84;5014911;28;45413;-73
2023/02/09 10:35:51;;;;;;;;;15.75;14.50;;;;;21.47;36.10;103237.88;5030828;28;46197;-73
2023/02/09 10:38:19;;;;;;;;;16.25;13.75;;;;;21.47;36.01;103235.22;5031432;28;46660;-73
2023/02/09 10:40:48;;;;;;;;;15.00;13.50;;;;;21.49;35.61;103243.06;5031516;28;45547;-73
2023/02/09 10:43:26;;;;;;;;;14.75;13.00;;;;;21.48;35.68;103241.38;5025242;28;45481;-73
2023/02/09 10:45:54;;;;;;;;;14.25;12.75;;;;;21.48;35.69;103250.16;5054169;28;45413;-73
2023/02/09 10:48:21;;;;;;;;;14.00;13.00;;;;;21.48;35.89;103249.31;5053555;28;45608;-73
2023/02/09 10:51:04;;;;;;;;;16.00;15.00;;;;;21.47;35.47;103244.97;5053961;28;45545;-73
2023/02/09 10:53:37;;;;;;;;;11.75;11.50;;;;;21.45;35.80;103242.47;5054459;28;45513;-74
2023/02/09 10:56:15;;;;;;;;;15.00;12.25;;;;;21.47;35.91;103255.56;5054008;28;46408;-73
2023/02/09 10:58:46;;;;;;;;;13.75;13.00;;;;;21.46;35.60;103252.09;5053714;28;45419;-73
2023/02/09 11:01:18;;;;;;;;;16.50;13.75;;;;;21.44;35.93;103254.03;5054026;28;45323;-73
2023/02/09 11:04:06;;;;;;;;;13.75;12.75;;;;;21.44;35.94;103240.78;5053925;28;45490;-73
2023/02/09 11:06:42;;;;;;;;;16.75;13.75;;;;;21.45;35.43;103247.75;5051722;28;46045;-73
2023/02/09 11:09:22;;;;;;;;;14.50;13.75;;;;;21.46;35.90;103249.44;5050565;28;45244;-73
2023/02/09 11:11:47;;;;;;;;;15.50;14.00;;;;;21.38;36.04;103242.09;5052288;28;45491;-72
2023/02/09 11:14:16;;;;;;;;;18.00;17.75;;;;;21.46;35.73;103243.31;5038468;28;45524;-72
2023/02/09 11:17:09;;;;;;;;;15.25;14.50;;;;;21.46;36.14;103246.81;5051562;28;46130;-72
2023/02/09 11:19:53;;;;;;;;;12.00;12.00;;;;;21.47;36.22;103237.03;5051028;28;45501;-73
2023/02/09 11:22:41;;;;;;;;;14.25;14.00;;;;;21.47;36.26;103237.03;5052027;28;45493;-73
2023/02/09 11:25:12;;;;;;;;;16.00;14.50;;;;;21.46;35.87;103249.44;5052236;28;45529;-73